createdAt,value
2018-04-27T00:02:22.014Z,8.30
2018-04-27T00:04:49.426Z,8.30
2018-04-27T00:07:16.897Z,8.24
2018-04-27T00:09:44.305Z,8.24
2018-04-27T00:12:11.814Z,8.13
2018-04-27T00:14:39.230Z,8.20
2018-04-27T00:17:06.654Z,8.25
2018-04-27T00:19:35.106Z,8.13
2018-04-27T00:22:02.545Z,8.13
2018-04-27T00:24:30.037Z,8.13
2018-04-27T00:26:57.473Z,7.97
2018-04-27T00:29:24.894Z,8.14
2018-04-27T00:31:52.393Z,8.04
2018-04-27T00:34:19.864Z,7.89
2018-04-27T00:36:47.303Z,7.87
2018-04-27T00:39:14.731Z,7.87
2018-04-27T00:41:42.153Z,8.06
2018-04-27T00:44:10.569Z,8.07
2018-04-27T00:46:38.049Z,8.16
2018-04-27T00:49:05.488Z,8.30
2018-04-27T00:51:33.886Z,8.16
2018-04-27T00:54:01.310Z,8.12
2018-04-27T00:56:28.713Z,8.18
2018-04-27T00:58:57.155Z,8.32
2018-04-27T01:01:24.634Z,8.32
2018-04-27T01:03:52.899Z,8.26
2018-04-27T01:06:20.366Z,8.39
2018-04-27T01:08:47.781Z,8.25
2018-04-27T01:11:15.277Z,8.25
2018-04-27T01:13:42.702Z,8.11
2018-04-27T01:16:10.111Z,8.09
2018-04-27T01:18:37.529Z,8.04
2018-04-27T01:21:04.950Z,7.95
2018-04-27T01:23:32.466Z,7.89
2018-04-27T01:25:59.877Z,8.06
2018-04-27T01:28:27.314Z,8.05
2018-04-27T01:30:54.830Z,7.87
2018-04-27T01:33:22.262Z,7.82
2018-04-27T01:35:49.674Z,7.83
2018-04-27T01:38:17.102Z,7.80
2018-04-27T01:40:44.526Z,7.97
2018-04-27T01:43:11.959Z,7.98
2018-04-27T01:45:39.382Z,8.08
2018-04-27T01:48:06.824Z,8.00
2018-04-27T01:50:34.241Z,7.89
2018-04-27T01:53:01.662Z,7.93
2018-04-27T01:55:29.091Z,7.89
2018-04-27T01:57:56.554Z,7.89
2018-04-27T02:00:23.962Z,7.79
2018-04-27T02:02:51.399Z,7.85
2018-04-27T02:05:18.818Z,7.85
2018-04-27T02:07:46.274Z,7.78
2018-04-27T02:10:13.697Z,7.92
2018-04-27T02:12:41.123Z,7.98
2018-04-27T02:15:08.550Z,7.84
2018-04-27T02:17:35.982Z,7.83
2018-04-27T02:20:03.458Z,7.83
2018-04-27T02:22:30.894Z,7.77
2018-04-27T02:24:58.317Z,7.78
2018-04-27T02:27:25.755Z,7.75
2018-04-27T02:29:53.198Z,7.68
2018-04-27T02:32:20.631Z,7.68
2018-04-27T02:34:48.049Z,7.59
2018-04-27T02:37:15.478Z,7.41
2018-04-27T02:39:42.896Z,7.43
2018-04-27T02:42:10.361Z,7.52
2018-04-27T02:44:37.790Z,7.55
2018-04-27T02:47:05.230Z,7.47
2018-04-27T02:49:33.617Z,7.49
2018-04-27T02:52:01.116Z,7.48
2018-04-27T02:54:28.525Z,7.51
2018-04-27T02:56:55.953Z,7.27
2018-04-27T02:59:23.386Z,7.10
2018-04-27T03:01:50.838Z,7.12
2018-04-27T03:04:18.290Z,7.12
2018-04-27T03:06:45.728Z,7.18
2018-04-27T03:09:13.145Z,7.08
2018-04-27T03:11:40.577Z,7.06
2018-04-27T03:14:08.013Z,7.09
2018-04-27T03:16:35.442Z,7.04
2018-04-27T03:19:03.851Z,6.91
2018-04-27T03:21:31.286Z,6.93
2018-04-27T03:23:58.732Z,6.91
2018-04-27T03:26:26.238Z,6.91
2018-04-27T03:28:53.654Z,6.97
2018-04-27T03:31:21.078Z,6.92
2018-04-27T03:33:48.498Z,6.92
2018-04-27T03:36:15.921Z,6.81
2018-04-27T03:38:43.343Z,6.75
2018-04-27T03:41:10.773Z,6.63
2018-04-27T03:43:38.212Z,6.79
2018-04-27T03:46:05.680Z,6.76
2018-04-27T03:48:33.085Z,6.80
2018-04-27T03:51:00.582Z,6.81
2018-04-27T03:53:28.002Z,6.81
2018-04-27T03:55:55.438Z,6.90
2018-04-27T03:58:22.854Z,6.95
2018-04-27T04:01:02.309Z,6.88
2018-04-27T04:03:41.586Z,6.89
2018-04-27T04:06:09.023Z,6.83
2018-04-27T04:08:36.438Z,6.91
2018-04-27T04:11:03.896Z,6.89
2018-04-27T04:13:31.312Z,6.82
2018-04-27T04:15:58.742Z,6.89
2018-04-27T04:18:26.166Z,7.04
2018-04-27T04:20:53.589Z,7.05
2018-04-27T04:23:21.006Z,7.08
2018-04-27T04:25:48.429Z,7.22
2018-04-27T04:28:15.846Z,7.22
2018-04-27T04:30:43.281Z,7.17
2018-04-27T04:33:10.702Z,7.19
2018-04-27T04:35:38.129Z,7.00
2018-04-27T04:38:05.610Z,7.03
2018-04-27T04:40:33.034Z,7.19
2018-04-27T04:43:00.457Z,7.11
2018-04-27T04:45:27.945Z,7.37
2018-04-27T04:47:55.362Z,7.35
2018-04-27T04:50:22.795Z,7.45
2018-04-27T04:52:51.139Z,7.26
2018-04-27T04:55:18.629Z,7.39
2018-04-27T04:57:46.048Z,7.30
2018-04-27T05:00:13.479Z,7.35
2018-04-27T05:02:40.918Z,7.46
2018-04-27T05:05:08.341Z,7.53
2018-04-27T05:07:36.725Z,7.58
2018-04-27T05:10:04.182Z,7.63
2018-04-27T05:12:31.605Z,7.74
2018-04-27T05:14:59.095Z,7.85
2018-04-27T05:17:26.526Z,7.82
2018-04-27T05:19:55.349Z,8.14
2018-04-27T05:22:22.787Z,8.25
2018-04-27T05:24:50.266Z,8.26
2018-04-27T05:27:17.694Z,8.36
2018-04-27T05:29:45.176Z,8.01
2018-04-27T05:32:12.611Z,8.08
2018-04-27T05:34:40.021Z,8.16
2018-04-27T05:37:07.458Z,8.24
2018-04-27T05:39:34.870Z,8.59
2018-04-27T05:42:02.306Z,8.73
2018-04-27T05:44:29.729Z,8.76
2018-04-27T05:46:57.174Z,8.52
2018-04-27T05:49:24.602Z,8.94
2018-04-27T05:51:52.074Z,8.93
2018-04-27T05:54:19.530Z,9.15
2018-04-27T05:56:46.992Z,9.12
2018-04-27T05:59:14.404Z,9.13
2018-04-27T06:01:41.945Z,8.96
2018-04-27T06:04:14.226Z,9.10
2018-04-27T06:06:42.650Z,9.23
2018-04-27T06:09:10.211Z,9.44
2018-04-27T06:11:37.626Z,9.62
2018-04-27T06:14:05.088Z,9.67
2018-04-27T06:16:32.554Z,9.81
2018-04-27T06:18:59.959Z,9.79
2018-04-27T06:21:27.393Z,10.07
2018-04-27T06:23:54.952Z,10.70
2018-04-27T06:26:22.358Z,10.59
2018-04-27T06:28:49.769Z,10.57
2018-04-27T06:31:17.251Z,10.96
2018-04-27T06:33:44.663Z,10.74
2018-04-27T06:36:12.073Z,10.84
2018-04-27T06:38:39.507Z,10.19
2018-04-27T06:41:06.914Z,10.40
2018-04-27T06:43:34.337Z,10.10
2018-04-27T06:46:01.752Z,10.41
2018-04-27T06:48:29.211Z,10.77
2018-04-27T06:50:57.685Z,10.72
2018-04-27T06:53:25.149Z,10.24
2018-04-27T06:55:53.531Z,10.52
2018-04-27T06:58:20.960Z,10.98
2018-04-27T07:00:48.378Z,10.88
2018-04-27T07:03:15.808Z,10.92
2018-04-27T07:05:44.150Z,10.93
2018-04-27T07:08:11.633Z,10.93
2018-04-27T07:10:40.106Z,10.93
2018-04-27T07:13:07.562Z,11.05
2018-04-27T07:15:35.134Z,11.14
2018-04-27T07:18:02.567Z,11.58
2018-04-27T07:20:30.045Z,11.39
2018-04-27T07:22:57.465Z,11.67
2018-04-27T07:25:24.885Z,11.92
2018-04-27T07:27:53.309Z,11.36
2018-04-27T07:30:20.730Z,11.64
2018-04-27T07:32:48.154Z,11.69
2018-04-27T07:35:15.578Z,11.68
2018-04-27T07:37:43.001Z,11.87
2018-04-27T07:40:10.422Z,11.67
2018-04-27T07:42:37.864Z,11.76
2018-04-27T07:45:05.284Z,12.21
2018-04-27T07:47:32.717Z,12.24
2018-04-27T07:50:00.149Z,12.50
2018-04-27T07:52:27.575Z,12.29
2018-04-27T07:54:55.051Z,12.58
2018-04-27T07:57:22.479Z,12.97
2018-04-27T07:59:50.857Z,12.86
2018-04-27T08:02:18.350Z,12.64
2018-04-27T08:04:45.723Z,12.97
2018-04-27T08:07:13.263Z,13.49
2018-04-27T08:09:40.673Z,13.47
2018-04-27T08:12:08.095Z,13.45
2018-04-27T08:14:35.510Z,13.44
2018-04-27T08:17:02.943Z,13.40
2018-04-27T08:19:30.434Z,13.38
2018-04-27T08:21:57.882Z,13.72
2018-04-27T08:24:25.336Z,13.54
2018-04-27T08:26:52.738Z,13.77
2018-04-27T08:29:20.146Z,14.05
2018-04-27T08:31:47.609Z,14.10
2018-04-27T08:34:15.032Z,13.75
2018-04-27T08:36:42.470Z,14.04
2018-04-27T08:39:09.892Z,14.38
2018-04-27T08:41:37.360Z,14.17
2018-04-27T08:44:04.754Z,14.31
2018-04-27T08:46:32.255Z,14.29
2018-04-27T08:48:59.677Z,14.55
2018-04-27T08:51:27.170Z,14.61
2018-04-27T08:53:54.590Z,14.85
2018-04-27T08:56:22.046Z,14.77
2018-04-27T08:58:50.440Z,14.95
2018-04-27T09:01:19.861Z,13.93
2018-04-27T09:03:47.318Z,14.36
2018-04-27T09:06:14.844Z,14.28
2018-04-27T09:08:42.194Z,14.49
2018-04-27T09:11:09.894Z,15.20
2018-04-27T09:13:37.305Z,15.30
2018-04-27T09:16:04.717Z,14.83
2018-04-27T09:18:32.165Z,14.91
2018-04-27T09:20:59.574Z,15.64
2018-04-27T09:23:27.082Z,15.80
2018-04-27T09:25:54.537Z,15.63
2018-04-27T09:28:22.017Z,15.76
2018-04-27T09:30:49.453Z,16.04
2018-04-27T09:33:16.882Z,15.19
2018-04-27T09:35:44.297Z,15.72
2018-04-27T09:38:11.738Z,16.68
2018-04-27T09:40:39.188Z,16.12
2018-04-27T09:43:06.645Z,16.71
2018-04-27T09:45:34.102Z,16.45
2018-04-27T09:48:03.455Z,16.13
2018-04-27T09:50:30.949Z,16.29
2018-04-27T09:52:58.402Z,16.72
2018-04-27T09:55:25.848Z,16.17
2018-04-27T09:57:53.259Z,15.26
2018-04-27T10:00:20.767Z,15.03
2018-04-27T10:02:48.183Z,15.62
2018-04-27T10:05:15.693Z,15.91
2018-04-27T10:07:43.101Z,16.04
2018-04-27T10:10:10.601Z,16.60
2018-04-27T10:12:38.014Z,15.66
2018-04-27T10:15:05.540Z,15.41
2018-04-27T10:17:32.875Z,15.65
2018-04-27T10:20:00.330Z,15.78
2018-04-27T10:22:28.682Z,15.26
2018-04-27T10:24:56.982Z,14.95
2018-04-27T10:27:24.436Z,15.08
2018-04-27T10:29:51.845Z,15.51
2018-04-27T10:32:19.274Z,16.09
2018-04-27T10:34:46.699Z,15.15
2018-04-27T10:37:14.118Z,15.21
2018-04-27T10:39:41.529Z,15.89
2018-04-27T10:42:08.990Z,15.43
2018-04-27T10:44:36.406Z,15.79
2018-04-27T10:47:03.837Z,16.23
2018-04-27T10:49:31.250Z,15.96
2018-04-27T10:51:58.793Z,15.79
2018-04-27T10:54:28.169Z,16.83
2018-04-27T10:56:55.610Z,16.92
2018-04-27T10:59:23.026Z,16.64
2018-04-27T11:01:50.480Z,16.40
2018-04-27T11:04:17.885Z,15.73
2018-04-27T11:06:45.302Z,15.72
2018-04-27T11:09:13.663Z,15.34
2018-04-27T11:11:41.118Z,16.06
2018-04-27T11:14:09.485Z,16.88
2018-04-27T11:16:37.871Z,16.69
2018-04-27T11:19:05.338Z,16.46
2018-04-27T11:21:33.683Z,15.69
2018-04-27T11:24:01.260Z,15.67
2018-04-27T11:26:28.682Z,16.33
2018-04-27T11:28:56.118Z,16.24
2018-04-27T11:31:27.906Z,15.68
2018-04-27T11:33:55.353Z,15.41
2018-04-27T11:36:22.765Z,15.43
2018-04-27T11:38:50.214Z,15.01
2018-04-27T11:41:17.700Z,15.29
2018-04-27T11:43:45.123Z,15.51
2018-04-27T11:46:14.486Z,14.86
2018-04-27T11:48:41.910Z,15.76
2018-04-27T11:51:10.246Z,15.78
2018-04-27T11:53:37.669Z,15.92
2018-04-27T11:56:05.110Z,15.57
2018-04-27T11:58:33.443Z,16.11
2018-04-27T12:01:00.883Z,16.07
2018-04-27T12:03:28.352Z,15.67
2018-04-27T12:05:55.799Z,16.00
2018-04-27T12:08:23.214Z,15.35
2018-04-27T12:10:50.650Z,14.69
2018-04-27T12:13:19.211Z,14.62
2018-04-27T12:15:46.653Z,14.68
2018-04-27T12:18:14.127Z,15.54
2018-04-27T12:20:41.673Z,16.52
2018-04-27T12:23:09.126Z,16.43
2018-04-27T12:25:36.601Z,16.27
2018-04-27T12:28:04.010Z,16.14
2018-04-27T12:30:31.456Z,16.46
2018-04-27T12:32:58.890Z,16.27
2018-04-27T12:35:26.309Z,16.89
2018-04-27T12:37:54.681Z,16.96
2018-04-27T12:40:22.090Z,15.95
2018-04-27T12:42:49.606Z,16.31
2018-04-27T12:45:17.023Z,16.07
2018-04-27T12:47:46.458Z,15.96
2018-04-27T12:50:14.817Z,15.74
2018-04-27T12:52:42.267Z,16.02
2018-04-27T12:55:09.677Z,16.35
2018-04-27T12:57:37.151Z,16.38
2018-04-27T13:00:05.562Z,16.85
2018-04-27T13:02:33.950Z,16.94
2018-04-27T13:05:01.394Z,17.25
2018-04-27T13:07:28.822Z,16.47
2018-04-27T13:09:59.834Z,17.51
2018-04-27T13:12:27.240Z,18.13
2018-04-27T13:14:54.682Z,18.92
2018-04-27T13:17:22.102Z,18.73
2018-04-27T13:19:49.555Z,18.93
2018-04-27T13:22:16.968Z,18.55
2018-04-27T13:24:44.422Z,18.74
2018-04-27T13:27:11.918Z,19.26
2018-04-27T13:29:39.365Z,18.71
2018-04-27T13:32:06.799Z,19.62
2018-04-27T13:34:34.306Z,20.51
2018-04-27T13:37:02.634Z,20.88
2018-04-27T13:39:31.038Z,19.76
2018-04-27T13:41:58.445Z,20.48
2018-04-27T13:44:25.863Z,20.57
2018-04-27T13:46:53.298Z,19.89
2018-04-27T13:49:21.687Z,18.00
2018-04-27T13:51:49.136Z,18.11
2018-04-27T13:54:16.550Z,17.64
2018-04-27T13:56:43.990Z,17.63
2018-04-27T13:59:12.408Z,17.20
2018-04-27T14:01:39.854Z,17.70
2018-04-27T14:04:07.261Z,17.35
2018-04-27T14:06:34.710Z,17.21
2018-04-27T14:09:02.129Z,17.51
2018-04-27T14:11:29.581Z,18.50
2018-04-27T14:13:57.000Z,18.64
2018-04-27T14:16:24.482Z,19.25
2018-04-27T14:18:51.882Z,19.73
2018-04-27T14:21:19.294Z,19.42
2018-04-27T14:23:46.806Z,19.06
2018-04-27T14:26:14.222Z,18.60
2018-04-27T14:28:41.714Z,18.18
2018-04-27T14:31:09.276Z,19.52
2018-04-27T14:33:36.709Z,19.53
2018-04-27T14:36:07.357Z,19.32
2018-04-27T14:38:34.818Z,21.16
2018-04-27T14:41:02.285Z,21.73
2018-04-27T14:43:29.693Z,22.86
2018-04-27T14:45:57.189Z,23.27
2018-04-27T14:48:24.647Z,24.25
2018-04-27T14:50:52.061Z,23.09
2018-04-27T14:53:19.475Z,22.86
2018-04-27T14:55:47.933Z,22.09
2018-04-27T14:58:15.343Z,20.36
2018-04-27T15:00:42.798Z,20.41
2018-04-27T15:03:10.206Z,20.67
2018-04-27T15:05:37.662Z,20.21
2018-04-27T15:08:06.001Z,18.90
2018-04-27T15:10:33.446Z,19.99
2018-04-27T15:13:00.853Z,20.31
2018-04-27T15:15:28.306Z,19.85
2018-04-27T15:17:55.715Z,18.05
2018-04-27T15:20:23.158Z,18.15
2018-04-27T15:22:50.567Z,17.71
2018-04-27T15:25:18.010Z,16.95
2018-04-27T15:27:45.493Z,16.97
2018-04-27T15:30:12.946Z,17.38
2018-04-27T15:32:40.407Z,17.76
2018-04-27T15:35:07.826Z,17.67
2018-04-27T15:37:35.286Z,16.47
2018-04-27T15:40:03.738Z,16.23
2018-04-27T15:42:31.156Z,15.96
2018-04-27T15:44:59.502Z,15.44
2018-04-27T15:47:26.991Z,15.10
2018-04-27T15:49:54.448Z,15.38
2018-04-27T15:52:22.926Z,15.58
2018-04-27T15:54:50.383Z,15.93
2018-04-27T15:57:17.856Z,15.94
2018-04-27T15:59:45.296Z,16.22
2018-04-27T16:02:12.706Z,16.55
2018-04-27T16:04:41.122Z,16.31
2018-04-27T16:07:08.542Z,16.34
2018-04-27T16:09:36.957Z,16.33
2018-04-27T16:12:04.366Z,16.06
2018-04-27T16:14:31.824Z,15.60
2018-04-27T16:16:59.233Z,15.40
2018-04-27T16:19:26.675Z,15.22
2018-04-27T16:21:54.157Z,15.03
2018-04-27T16:24:21.593Z,15.21
2018-04-27T16:26:49.006Z,15.32
2018-04-27T16:29:16.517Z,14.83
2018-04-27T16:31:43.973Z,15.03
2018-04-27T16:34:11.422Z,15.19
2018-04-27T16:36:38.846Z,15.19
2018-04-27T16:39:07.257Z,15.11
2018-04-27T16:41:34.714Z,14.86
2018-04-27T16:44:03.409Z,14.74
2018-04-27T16:46:30.822Z,14.84
2018-04-27T16:48:58.239Z,14.79
2018-04-27T16:51:25.677Z,14.69
2018-04-27T16:53:53.230Z,14.74
2018-04-27T16:56:20.676Z,14.71
2018-04-27T16:58:48.089Z,14.55
2018-04-27T17:01:16.523Z,14.49
2018-04-27T17:03:43.999Z,14.46
2018-04-27T17:06:11.379Z,14.62
2018-04-27T17:08:38.899Z,14.50
2018-04-27T17:11:07.269Z,14.42
2018-04-27T17:13:34.774Z,14.62
2018-04-27T17:16:02.195Z,14.61
2018-04-27T17:18:29.614Z,14.57
2018-04-27T17:20:57.063Z,14.47
2018-04-27T17:23:24.484Z,14.26
2018-04-27T17:25:52.794Z,13.97
2018-04-27T17:28:20.995Z,14.06
2018-04-27T17:30:48.458Z,14.01
2018-04-27T17:33:15.899Z,13.80
2018-04-27T17:35:43.330Z,13.80
2018-04-27T17:38:10.781Z,13.91
2018-04-27T17:40:39.171Z,13.79
2018-04-27T17:43:06.631Z,13.89
2018-04-27T17:45:34.042Z,13.94
2018-04-27T17:48:01.648Z,13.79
2018-04-27T17:50:29.012Z,13.89
2018-04-27T17:52:56.494Z,14.01
2018-04-27T17:55:23.917Z,13.93
2018-04-27T17:57:51.409Z,13.86
2018-04-27T18:00:18.851Z,13.79
2018-04-27T18:02:46.262Z,13.65
2018-04-27T18:05:13.877Z,13.55
2018-04-27T18:07:42.221Z,13.37
2018-04-27T18:10:09.661Z,13.37
2018-04-27T18:12:37.173Z,13.13
2018-04-27T18:15:04.634Z,12.77
2018-04-27T18:17:32.054Z,12.71
2018-04-27T18:19:59.542Z,12.64
2018-04-27T18:22:26.966Z,12.64
2018-04-27T18:24:54.405Z,12.70
2018-04-27T18:27:21.918Z,12.78
2018-04-27T18:29:50.355Z,12.88
2018-04-27T18:32:17.707Z,13.09
2018-04-27T18:34:45.147Z,13.25
2018-04-27T18:37:12.557Z,13.16
2018-04-27T18:39:40.122Z,13.09
2018-04-27T18:42:07.533Z,12.83
2018-04-27T18:44:35.078Z,12.86
2018-04-27T18:47:02.494Z,12.85
2018-04-27T18:49:29.910Z,12.88
2018-04-27T18:51:57.349Z,12.62
2018-04-27T18:54:24.766Z,12.61
2018-04-27T18:56:52.212Z,12.77
2018-04-27T18:59:19.625Z,12.87
2018-04-27T19:01:47.066Z,13.03
2018-04-27T19:04:15.329Z,13.02
2018-04-27T19:06:42.769Z,13.02
2018-04-27T19:09:10.217Z,12.66
2018-04-27T19:11:37.663Z,12.88
2018-04-27T19:14:05.130Z,12.93
2018-04-27T19:16:33.514Z,12.66
2018-04-27T19:19:01.840Z,12.63
2018-04-27T19:21:30.264Z,12.61
2018-04-27T19:23:57.682Z,12.59
2018-04-27T19:26:25.137Z,12.35
2018-04-27T19:28:52.562Z,12.16
2018-04-27T19:31:20.002Z,12.05
2018-04-27T19:33:47.450Z,12.07
2018-04-27T19:36:14.904Z,12.10
2018-04-27T19:38:42.357Z,12.18
2018-04-27T19:41:09.781Z,12.19
2018-04-27T19:43:38.134Z,12.07
2018-04-27T19:46:05.650Z,12.02
2018-04-27T19:48:33.107Z,12.12
2018-04-27T19:51:00.565Z,12.17
2018-04-27T19:53:28.014Z,12.09
2018-04-27T19:55:55.485Z,12.11
2018-04-27T19:58:22.945Z,11.94
2018-04-27T20:00:50.373Z,11.85
2018-04-27T20:03:17.818Z,11.73
2018-04-27T20:05:47.325Z,11.73
2018-04-27T20:08:15.829Z,11.65
2018-04-27T20:10:44.024Z,11.61
2018-04-27T20:13:12.388Z,11.50
2018-04-27T20:15:39.815Z,11.65
2018-04-27T20:18:11.950Z,11.63
2018-04-27T20:20:39.469Z,11.53
2018-04-27T20:23:08.815Z,11.43
2018-04-27T20:25:36.324Z,11.09
2018-04-27T20:28:05.734Z,11.19
2018-04-27T20:30:33.185Z,11.20
2018-04-27T20:33:00.603Z,11.23
2018-04-27T20:35:28.052Z,11.29
2018-04-27T20:38:02.183Z,11.22
2018-04-27T20:40:29.669Z,10.99
2018-04-27T20:42:57.087Z,10.91
2018-04-27T20:45:24.534Z,10.87
2018-04-27T20:47:51.953Z,11.05
2018-04-27T20:50:23.798Z,10.99
2018-04-27T20:52:51.210Z,11.14
2018-04-27T20:55:18.653Z,10.71
2018-04-27T20:57:47.399Z,10.63
2018-04-27T21:00:14.845Z,10.71
2018-04-27T21:02:43.738Z,10.71
2018-04-27T21:05:11.490Z,10.90
2018-04-27T21:07:38.913Z,10.89
2018-04-27T21:10:06.335Z,10.86
2018-04-27T21:12:33.782Z,10.97
2018-04-27T21:15:05.754Z,11.08
2018-04-27T21:17:33.314Z,10.96
2018-04-27T21:20:00.754Z,11.00
2018-04-27T21:22:28.198Z,10.84
2018-04-27T21:24:55.695Z,10.83
2018-04-27T21:27:23.122Z,10.80
2018-04-27T21:29:50.566Z,10.75
2018-04-27T21:32:18.038Z,10.57
2018-04-27T21:34:45.487Z,10.55
2018-04-27T21:37:12.947Z,10.85
2018-04-27T21:39:40.370Z,10.84
2018-04-27T21:42:13.367Z,10.78
2018-04-27T21:44:43.505Z,10.89
2018-04-27T21:50:03.665Z,11.14
2018-04-27T21:52:31.125Z,11.18
2018-04-27T21:54:58.719Z,11.23
2018-04-27T21:57:28.675Z,11.06
2018-04-27T22:00:03.679Z,11.21
2018-04-27T22:05:50.722Z,11.05
2018-04-27T22:08:24.023Z,10.73
2018-04-27T22:10:54.074Z,10.58
2018-04-27T22:13:22.338Z,10.78
2018-04-27T22:15:49.783Z,10.51
2018-04-27T22:18:17.209Z,10.63
2018-04-27T22:20:47.275Z,10.63
2018-04-27T22:23:15.262Z,10.74
2018-04-27T22:25:48.185Z,10.96
2018-04-27T22:28:21.534Z,10.92
2018-04-27T22:30:49.706Z,10.81
2018-04-27T22:33:22.622Z,10.92
2018-04-27T22:42:01.490Z,10.22
2018-04-27T22:47:28.970Z,10.42
2018-04-27T22:49:56.446Z,10.45
2018-04-27T22:52:23.871Z,10.38
2018-04-27T22:54:55.977Z,10.53
2018-04-27T22:57:36.218Z,10.60
2018-04-27T23:00:04.938Z,10.49
2018-04-27T23:02:33.366Z,10.38
2018-04-27T23:05:01.674Z,10.35
2018-04-27T23:07:30.070Z,10.42
2018-04-27T23:09:57.494Z,10.43
2018-04-27T23:12:36.687Z,10.34
2018-04-27T23:15:06.858Z,10.34
2018-04-27T23:17:34.324Z,10.22
2018-04-27T23:23:10.480Z,10.18
2018-04-27T23:25:46.320Z,10.22
2018-04-27T23:28:13.761Z,10.20
2018-04-27T23:30:42.917Z,10.35
2018-04-27T23:33:11.074Z,10.41
2018-04-27T23:35:38.530Z,10.46
2018-04-27T23:38:06.082Z,10.76
2018-04-27T23:40:33.506Z,10.75
2018-04-27T23:43:00.966Z,10.87
2018-04-27T23:45:30.189Z,10.95
2018-04-27T23:47:58.606Z,10.98
2018-04-27T23:50:26.029Z,11.06
2018-04-27T23:52:53.478Z,11.14
2018-04-27T23:55:20.926Z,11.05
2018-04-27T23:57:48.347Z,10.89
